Time;durP1;ratioP1;P1;durP2;ratioP2;P2;SDS_P1;SDS_P2;PMS_P1;PMS_P2;Temp;Humidity;BMP_temperature;BMP_pressure;BME280_temperature;BME280_humidity;BME280_pressure;Samples;Min_cycle;Max_cycle;Signal;HPM_P1;HPM_P2
2023/01/28 00:01:52;;;;;;;12.60;7.47;;;;;;;;;;5051134;28;20037;-78
2023/01/28 00:04:18;;;;;;;12.15;7.25;;;;;;;;;;5051293;28;20041;-78
2023/01/28 00:06:44;;;;;;;11.50;7.35;;;;;;;;;;5050985;28;20122;-78
2023/01/28 00:09:11;;;;;;;12.23;7.68;;;;;;;;;;5034994;28;20045;-78
2023/01/28 00:11:37;;;;;;;14.07;8.45;;;;;;;;;;5051182;28;20041;-78
2023/01/28 00:14:06;;;;;;;14.05;8.48;;;;;;;;;;5050928;28;20033;-78
2023/01/28 00:16:32;;;;;;;12.68;8.05;;;;;;;;;;5050891;28;20267;-78
2023/01/28 00:18:58;;;;;;;12.07;7.70;;;;;;;;;;5051272;28;20074;-78
2023/01/28 00:21:24;;;;;;;12.98;8.20;;;;;;;;;;5051171;28;20077;-78
2023/01/28 00:23:53;;;;;;;12.52;8.18;;;;;;;;;;5034276;28;20052;-78
2023/01/28 00:26:19;;;;;;;12.18;8.05;;;;;;;;;;5051053;28;20049;-78
2023/01/28 00:28:45;;;;;;;13.63;8.48;;;;;;;;;;5050737;28;20051;-78
2023/01/28 00:31:16;;;;;;;13.05;8.88;;;;;;;;;;5034742;28;20037;-78
2023/01/28 00:33:43;;;;;;;12.48;8.35;;;;;;;;;;5034311;28;20604;-78
2023/01/28 00:36:09;;;;;;;12.70;8.02;;;;;;;;;;5050958;28;20486;-78
2023/01/28 00:38:35;;;;;;;12.65;8.05;;;;;;;;;;5034226;28;20048;-78
2023/01/28 00:41:17;;;;;;;12.13;8.02;;;;;;;;;;5051292;28;20045;-78
2023/01/28 00:43:44;;;;;;;13.07;8.25;;;;;;;;;;5051166;28;20072;-78
2023/01/28 00:46:12;;;;;;;12.75;8.10;;;;;;;;;;5034086;28;20045;-79
2023/01/28 00:48:39;;;;;;;13.70;8.15;;;;;;;;;;5050359;28;20067;-78
2023/01/28 00:51:05;;;;;;;12.93;8.02;;;;;;;;;;5050531;28;20084;-78
2023/01/28 00:53:33;;;;;;;13.20;8.00;;;;;;;;;;5050317;28;20041;-78
2023/01/28 00:55:59;;;;;;;14.23;8.13;;;;;;;;;;5050981;28;20489;-78
2023/01/28 00:58:25;;;;;;;12.80;7.28;;;;;;;;;;5033988;28;20041;-78
2023/01/28 01:00:52;;;;;;;10.80;6.85;;;;;;;;;;5051108;28;20044;-78
2023/01/28 01:03:19;;;;;;;13.95;7.43;;;;;;;;;;5050377;28;20045;-78
2023/01/28 01:05:45;;;;;;;12.00;7.03;;;;;;;;;;5041154;28;20032;-78
2023/01/28 01:08:11;;;;;;;12.02;7.35;;;;;;;;;;5057860;28;20555;-78
2023/01/28 01:10:38;;;;;;;10.70;6.88;;;;;;;;;;5050371;28;20052;-78
2023/01/28 01:13:07;;;;;;;11.73;7.18;;;;;;;;;;5051732;28;20043;-78
2023/01/28 01:15:33;;;;;;;12.38;6.95;;;;;;;;;;5055323;28;20029;-78
2023/01/28 01:18:00;;;;;;;11.13;6.82;;;;;;;;;;5070766;28;20040;-78
2023/01/28 01:20:27;;;;;;;13.32;7.57;;;;;;;;;;5053966;28;20045;-78
2023/01/28 01:22:53;;;;;;;11.05;6.80;;;;;;;;;;5037333;28;20036;-78
2023/01/28 01:25:20;;;;;;;11.73;7.30;;;;;;;;;;5054078;28;20048;-78
2023/01/28 01:27:48;;;;;;;12.38;7.30;;;;;;;;;;5040144;28;20049;-78
2023/01/28 01:30:15;;;;;;;12.38;7.18;;;;;;;;;;5055025;28;20129;-78
2023/01/28 01:32:41;;;;;;;12.68;7.47;;;;;;;;;;5053586;28;20072;-78
2023/01/28 01:35:07;;;;;;;12.30;7.50;;;;;;;;;;5037443;28;20446;-78
2023/01/28 01:37:34;;;;;;;12.93;7.38;;;;;;;;;;5053684;28;20075;-78
2023/01/28 01:40:03;;;;;;;11.98;6.90;;;;;;;;;;5054970;28;20045;-78
2023/01/28 01:42:31;;;;;;;13.75;7.68;;;;;;;;;;5036696;28;20124;-78
2023/01/28 01:45:01;;;;;;;11.55;6.70;;;;;;;;;;5037075;28;20041;-78
2023/01/28 01:47:46;;;;;;;12.77;7.05;;;;;;;;;;5054403;28;20040;-78
2023/01/28 01:50:16;;;;;;;12.35;6.93;;;;;;;;;;5037367;28;20394;-78
2023/01/28 01:52:42;;;;;;;11.07;6.53;;;;;;;;;;5053094;28;20064;-78
2023/01/28 01:55:16;;;;;;;11.02;6.18;;;;;;;;;;5053435;28;20119;-79
2023/01/28 01:57:43;;;;;;;12.70;6.82;;;;;;;;;;5053048;28;20039;-78
2023/01/28 02:00:10;;;;;;;12.82;7.53;;;;;;;;;;5069908;28;20044;-78
2023/01/28 02:02:40;;;;;;;13.25;7.18;;;;;;;;;;5036672;28;20045;-78
2023/01/28 02:05:07;;;;;;;11.60;6.85;;;;;;;;;;5054818;28;20045;-78
2023/01/28 02:07:34;;;;;;;14.57;7.93;;;;;;;;;;5065364;28;20446;-78
2023/01/28 02:10:00;;;;;;;11.88;7.18;;;;;;;;;;5053103;28;20167;-78
2023/01/28 02:12:32;;;;;;;12.82;7.70;;;;;;;;;;5053002;28;20107;-78
2023/01/28 02:15:03;;;;;;;12.57;7.35;;;;;;;;;;5053374;28;20098;-78
2023/01/28 02:17:30;;;;;;;12.38;6.90;;;;;;;;;;5052697;28;20048;-79
2023/01/28 02:19:59;;;;;;;13.07;7.65;;;;;;;;;;5052801;28;20048;-78
2023/01/28 02:22:31;;;;;;;11.82;7.03;;;;;;;;;;5053047;28;20063;-78
2023/01/28 02:25:09;;;;;;;12.27;7.30;;;;;;;;;;5036878;28;20486;-79
2023/01/28 02:27:37;;;;;;;13.80;8.13;;;;;;;;;;5054026;28;20044;-78
2023/01/28 02:30:10;;;;;;;13.50;8.07;;;;;;;;;;5052601;28;20127;-78
2023/01/28 02:32:40;;;;;;;15.05;8.02;;;;;;;;;;5052431;28;20143;-78
2023/01/28 02:35:06;;;;;;;15.80;8.43;;;;;;;;;;5036000;28;20091;-78
2023/01/28 02:37:43;;;;;;;13.20;7.57;;;;;;;;;;5052636;28;20513;-78
2023/01/28 02:40:11;;;;;;;13.43;7.57;;;;;;;;;;5052610;28;20477;-78
2023/01/28 02:42:38;;;;;;;14.52;8.07;;;;;;;;;;5052292;28;20049;-78
2023/01/28 02:45:17;;;;;;;13.48;7.55;;;;;;;;;;5052503;28;20045;-78
2023/01/28 02:47:58;;;;;;;15.50;8.27;;;;;;;;;;5052081;28;20122;-78
2023/01/28 02:50:29;;;;;;;13.45;8.02;;;;;;;;;;5052329;28;20064;-78
2023/01/28 02:56:01;;;;;;;14.07;7.78;;;;;;;;;;5052311;28;20505;-78
2023/01/28 02:58:36;;;;;;;13.85;8.00;;;;;;;;;;5039141;28;20044;-78
2023/01/28 03:01:15;;;;;;;10.73;5.78;;;;;;;;;;5051832;28;20167;-78
2023/01/28 03:03:44;;;;;;;15.85;8.57;;;;;;;;;;5050199;28;20094;-78
2023/01/28 03:06:12;;;;;;;14.27;8.35;;;;;;;;;;5061283;28;20040;-78
2023/01/28 03:39:12;;;;;;;16.38;9.15;;;;;;;;;;5051532;28;20045;-78
2023/01/28 03:41:38;;;;;;;16.42;8.82;;;;;;;;;;5051258;28;20044;-79
2023/01/28 03:46:48;;;;;;;15.60;8.85;;;;;;;;;;5051419;28;20132;-78
2023/01/28 03:49:15;;;;;;;14.23;8.55;;;;;;;;;;5034721;28;20053;-78
2023/01/28 03:51:41;;;;;;;14.02;8.65;;;;;;;;;;5034922;28;20462;-78
2023/01/28 03:54:07;;;;;;;15.32;8.93;;;;;;;;;;5047950;28;20049;-78
2023/01/28 03:56:39;;;;;;;14.15;8.52;;;;;;;;;;5053445;28;20115;-78
2023/01/28 03:59:05;;;;;;;15.05;8.98;;;;;;;;;;5051261;28;20056;-78
2023/01/28 04:01:31;;;;;;;18.20;9.75;;;;;;;;;;5063167;28;20032;-78
2023/01/28 04:03:57;;;;;;;14.90;9.05;;;;;;;;;;5034592;28;20083;-78
2023/01/28 04:06:23;;;;;;;14.55;8.88;;;;;;;;;;5054886;28;20424;-78
2023/01/28 04:08:52;;;;;;;15.55;8.77;;;;;;;;;;5065511;28;20093;-78
2023/01/28 04:11:20;;;;;;;15.25;9.23;;;;;;;;;;5072229;28;20120;-78
2023/01/28 04:13:47;;;;;;;13.32;8.35;;;;;;;;;;5051652;28;20094;-79
2023/01/28 04:16:13;;;;;;;15.90;9.35;;;;;;;;;;5047607;28;20090;-78
2023/01/28 04:18:39;;;;;;;16.15;8.77;;;;;;;;;;5072326;28;20198;-79
2023/01/28 04:21:06;;;;;;;15.27;8.77;;;;;;;;;;5060441;28;20044;-78
2023/01/28 04:23:32;;;;;;;14.45;8.85;;;;;;;;;;5055284;28;20041;-79
2023/01/28 04:25:58;;;;;;;13.73;8.65;;;;;;;;;;5061826;28;20037;-78
2023/01/28 04:28:24;;;;;;;12.73;8.20;;;;;;;;;;5053160;28;20116;-78
2023/01/28 04:30:51;;;;;;;12.73;7.93;;;;;;;;;;5070695;28;20044;-78
2023/01/28 04:33:17;;;;;;;13.57;8.48;;;;;;;;;;5057988;28;20501;-78
2023/01/28 04:35:44;;;;;;;12.90;8.43;;;;;;;;;;5070689;28;20481;-78
2023/01/28 04:38:10;;;;;;;14.10;8.68;;;;;;;;;;5071158;28;20041;-78
2023/01/28 04:40:36;;;;;;;16.20;9.32;;;;;;;;;;5056728;28;20040;-78
2023/01/28 04:43:02;;;;;;;14.98;9.05;;;;;;;;;;5062206;28;20051;-79
2023/01/28 04:45:29;;;;;;;15.48;9.48;;;;;;;;;;5048367;28;20050;-78
2023/01/28 04:47:56;;;;;;;16.17;8.95;;;;;;;;;;5051796;28;20045;-78
2023/01/28 04:50:22;;;;;;;14.55;8.93;;;;;;;;;;5068179;28;20074;-78
2023/01/28 04:52:48;;;;;;;14.48;8.98;;;;;;;;;;5060242;28;20049;-78
2023/01/28 04:55:14;;;;;;;14.73;8.80;;;;;;;;;;5063333;28;20041;-78
2023/01/28 04:57:40;;;;;;;15.48;9.45;;;;;;;;;;5071951;28;20051;-78
2023/01/28 05:00:06;;;;;;;15.80;9.48;;;;;;;;;;5064889;28;20049;-78
2023/01/28 05:02:32;;;;;;;16.17;9.80;;;;;;;;;;5046644;28;20056;-78
2023/01/28 05:05:00;;;;;;;15.52;9.52;;;;;;;;;;5054405;28;20401;-78
2023/01/28 05:07:26;;;;;;;14.93;9.40;;;;;;;;;;5067951;28;20044;-78
2023/01/28 05:09:52;;;;;;;14.00;9.18;;;;;;;;;;5067988;28;20049;-78
2023/01/28 05:12:19;;;;;;;13.93;9.52;;;;;;;;;;5037629;28;20040;-78
2023/01/28 05:14:45;;;;;;;14.02;8.77;;;;;;;;;;5054263;28;20045;-78
2023/01/28 05:17:11;;;;;;;14.85;9.00;;;;;;;;;;5063221;28;20133;-78
2023/01/28 05:19:37;;;;;;;11.45;7.55;;;;;;;;;;5073239;28;20048;-78
2023/01/28 05:22:03;;;;;;;14.38;9.07;;;;;;;;;;5054305;28;20567;-78
2023/01/28 05:24:30;;;;;;;13.38;8.90;;;;;;;;;;5054235;28;20080;-78
2023/01/28 05:26:56;;;;;;;14.82;9.30;;;;;;;;;;5074724;28;20460;-78
2023/01/28 05:29:22;;;;;;;13.82;8.50;;;;;;;;;;5062698;28;20509;-78
2023/01/28 05:31:48;;;;;;;12.68;8.75;;;;;;;;;;5054085;28;20091;-78
2023/01/28 05:34:14;;;;;;;14.57;9.40;;;;;;;;;;5057164;28;20047;-78
2023/01/28 05:36:40;;;;;;;13.48;8.57;;;;;;;;;;5051361;28;20127;-78
2023/01/28 05:39:15;;;;;;;14.27;8.95;;;;;;;;;;5054608;28;20386;-80
2023/01/28 05:41:41;;;;;;;15.33;9.23;;;;;;;;;;5054425;28;20041;-78
2023/01/28 05:44:07;;;;;;;15.05;9.35;;;;;;;;;;5053717;28;20037;-79
2023/01/28 05:46:33;;;;;;;14.35;9.10;;;;;;;;;;5054461;28;20482;-80
2023/01/28 05:48:59;;;;;;;15.02;9.40;;;;;;;;;;5053298;28;20037;-77
2023/01/28 05:51:28;;;;;;;13.90;9.13;;;;;;;;;;5056965;28;20045;-78
2023/01/28 05:53:54;;;;;;;14.43;8.85;;;;;;;;;;5064124;28;20163;-78
2023/01/28 05:56:20;;;;;;;15.10;8.35;;;;;;;;;;5053519;28;20056;-78
2023/01/28 05:58:46;;;;;;;13.60;8.38;;;;;;;;;;5052889;28;20043;-78
2023/01/28 06:01:12;;;;;;;12.55;8.32;;;;;;;;;;5060292;28;20087;-78
2023/01/28 06:03:38;;;;;;;13.30;8.30;;;;;;;;;;5060095;28;20045;-78
2023/01/28 06:06:05;;;;;;;14.65;8.75;;;;;;;;;;5058195;28;20055;-78
2023/01/28 06:08:31;;;;;;;12.43;8.00;;;;;;;;;;5048718;28;20048;-78
2023/01/28 06:10:57;;;;;;;13.63;9.00;;;;;;;;;;5066694;28;20044;-78
2023/01/28 06:13:23;;;;;;;14.35;8.07;;;;;;;;;;5056375;28;20043;-78
2023/01/28 06:15:49;;;;;;;12.35;8.38;;;;;;;;;;5062532;28;20037;-78
2023/01/28 06:18:16;;;;;;;12.98;8.57;;;;;;;;;;5067272;28;20115;-78
2023/01/28 06:20:42;;;;;;;13.30;8.15;;;;;;;;;;5053238;28;20037;-78
2023/01/28 06:23:08;;;;;;;11.80;7.70;;;;;;;;;;5054736;28;20045;-78
2023/01/28 06:25:34;;;;;;;13.68;8.55;;;;;;;;;;5064743;28;20036;-78
2023/01/28 06:28:00;;;;;;;13.35;8.63;;;;;;;;;;5066400;28;20062;-78
2023/01/28 06:30:26;;;;;;;15.75;9.45;;;;;;;;;;5052986;28;20033;-78
2023/01/28 06:32:56;;;;;;;15.00;9.02;;;;;;;;;;5065276;28;20048;-78
2023/01/28 06:35:22;;;;;;;15.07;9.70;;;;;;;;;;5058943;28;20043;-78
2023/01/28 06:37:48;;;;;;;12.30;8.20;;;;;;;;;;5073175;28;20044;-78
2023/01/28 06:40:14;;;;;;;15.18;8.43;;;;;;;;;;5055692;28;20067;-78
2023/01/28 06:42:41;;;;;;;12.18;8.15;;;;;;;;;;5061929;28;20040;-78
2023/01/28 06:45:07;;;;;;;14.70;9.05;;;;;;;;;;5057212;28;20090;-78
2023/01/28 06:47:33;;;;;;;15.02;9.30;;;;;;;;;;5059805;28;20107;-78
2023/01/28 06:49:59;;;;;;;13.98;9.20;;;;;;;;;;5055476;28;20041;-78
2023/01/28 06:52:25;;;;;;;14.05;8.45;;;;;;;;;;5058005;28;20076;-78
2023/01/28 06:54:51;;;;;;;13.70;8.95;;;;;;;;;;5061358;28;20477;-78
2023/01/28 06:57:17;;;;;;;17.38;9.43;;;;;;;;;;5066369;28;20405;-78
2023/01/28 06:59:43;;;;;;;15.40;9.25;;;;;;;;;;5067739;28;20410;-78
2023/01/28 07:02:10;;;;;;;13.20;8.35;;;;;;;;;;5064773;28;20557;-78
2023/01/28 07:04:37;;;;;;;15.73;9.68;;;;;;;;;;5052036;28;20049;-78
2023/01/28 07:07:03;;;;;;;15.40;9.13;;;;;;;;;;5071412;28;20044;-78
2023/01/28 07:09:29;;;;;;;13.05;8.38;;;;;;;;;;5070232;28;20066;-78
2023/01/28 07:11:55;;;;;;;15.82;9.02;;;;;;;;;;5042578;28;20040;-78
2023/01/28 07:14:21;;;;;;;13.60;8.60;;;;;;;;;;5057725;28;20099;-78
2023/01/28 07:16:47;;;;;;;14.20;8.60;;;;;;;;;;5041124;28;20033;-78
2023/01/28 07:19:13;;;;;;;14.82;8.98;;;;;;;;;;5072731;28;20045;-78
2023/01/28 07:21:39;;;;;;;17.15;9.35;;;;;;;;;;5067886;28;20033;-78
2023/01/28 07:24:05;;;;;;;14.93;9.13;;;;;;;;;;5052135;28;20041;-79
2023/01/28 07:26:31;;;;;;;16.55;10.30;;;;;;;;;;5051919;28;20041;-78
2023/01/28 07:28:59;;;;;;;15.98;9.75;;;;;;;;;;5051883;28;20413;-78
2023/01/28 07:31:25;;;;;;;18.25;10.02;;;;;;;;;;5051904;28;20053;-78
2023/01/28 07:33:51;;;;;;;16.17;9.50;;;;;;;;;;5066297;28;20115;-78
2023/01/28 07:36:17;;;;;;;19.45;10.23;;;;;;;;;;5066188;28;20062;-78
2023/01/28 07:38:43;;;;;;;17.17;9.88;;;;;;;;;;5072070;28;20417;-78
2023/01/28 07:41:09;;;;;;;15.82;9.23;;;;;;;;;;5071803;28;20040;-78
2023/01/28 07:43:35;;;;;;;17.50;9.10;;;;;;;;;;5052690;28;20444;-79
2023/01/28 07:46:01;;;;;;;15.25;9.18;;;;;;;;;;5060419;28;20528;-78
2023/01/28 07:48:27;;;;;;;16.15;9.75;;;;;;;;;;5058515;28;20087;-78
2023/01/28 07:50:57;;;;;;;17.27;10.07;;;;;;;;;;5071510;28;20110;-78
2023/01/28 07:53:23;;;;;;;17.15;10.43;;;;;;;;;;5072482;28;20436;-78
2023/01/28 07:55:50;;;;;;;16.77;10.23;;;;;;;;;;5052310;28;20051;-78
2023/01/28 07:58:16;;;;;;;15.45;9.75;;;;;;;;;;5046374;28;20071;-78
2023/01/28 08:00:42;;;;;;;16.02;9.88;;;;;;;;;;5051266;28;20086;-79
2023/01/28 08:03:14;;;;;;;18.45;10.95;;;;;;;;;;5051431;28;20489;-79
2023/01/28 08:05:43;;;;;;;17.60;10.30;;;;;;;;;;5051673;28;20466;-78
2023/01/28 08:08:10;;;;;;;16.33;10.07;;;;;;;;;;5059914;28;20092;-79
2023/01/28 08:10:36;;;;;;;17.52;9.82;;;;;;;;;;5043784;28;20045;-79
2023/01/28 08:13:02;;;;;;;16.70;9.98;;;;;;;;;;5068447;28;20036;-79
2023/01/28 08:15:29;;;;;;;15.65;9.43;;;;;;;;;;5062080;28;20120;-78
2023/01/28 08:17:55;;;;;;;15.00;9.63;;;;;;;;;;5049819;28;20033;-79
2023/01/28 08:20:22;;;;;;;17.85;10.00;;;;;;;;;;5071433;28;20040;-78
2023/01/28 08:22:48;;;;;;;16.13;10.27;;;;;;;;;;5060285;28;20049;-78
2023/01/28 08:25:14;;;;;;;16.00;10.18;;;;;;;;;;5055382;28;20041;-79
2023/01/28 08:27:40;;;;;;;16.58;10.40;;;;;;;;;;5055569;28;20521;-78
2023/01/28 08:30:08;;;;;;;17.40;10.63;;;;;;;;;;5072778;28;20574;-78
2023/01/28 08:32:34;;;;;;;19.52;11.43;;;;;;;;;;5065263;28;20073;-79
2023/01/28 08:35:00;;;;;;;20.50;12.07;;;;;;;;;;5055591;28;20072;-79
2023/01/28 08:37:26;;;;;;;19.30;10.85;;;;;;;;;;5055440;28;20087;-79
2023/01/28 08:39:52;;;;;;;15.27;9.77;;;;;;;;;;5055177;28;20040;-79
2023/01/28 08:42:18;;;;;;;17.25;9.77;;;;;;;;;;5040885;28;20047;-79
2023/01/28 08:44:44;;;;;;;13.48;9.55;;;;;;;;;;5038330;28;20052;-79
2023/01/28 08:47:11;;;;;;;13.25;8.73;;;;;;;;;;5072719;28;20036;-79
2023/01/28 08:49:37;;;;;;;12.40;9.57;;;;;;;;;;5074357;28;20124;-79
2023/01/28 08:52:03;;;;;;;12.07;9.23;;;;;;;;;;5074497;28;20101;-79
2023/01/28 08:54:29;;;;;;;11.60;8.95;;;;;;;;;;5074557;28;20044;-79
2023/01/28 08:56:55;;;;;;;10.77;8.40;;;;;;;;;;5057595;28;20051;-77
2023/01/28 08:59:21;;;;;;;10.38;9.18;;;;;;;;;;5060261;28;20048;-77
2023/01/28 09:01:47;;;;;;;11.15;9.38;;;;;;;;;;5074466;28;20483;-77
2023/01/28 09:04:13;;;;;;;11.10;9.00;;;;;;;;;;5057723;28;20560;-77
2023/01/28 09:06:39;;;;;;;10.77;8.13;;;;;;;;;;5074067;28;20063;-77
2023/01/28 09:09:05;;;;;;;9.63;8.13;;;;;;;;;;5074186;28;20051;-78
2023/01/28 09:11:31;;;;;;;10.52;8.65;;;;;;;;;;5059957;28;20032;-78
2023/01/28 09:13:58;;;;;;;8.88;7.97;;;;;;;;;;5057621;28;20045;-77
2023/01/28 09:16:25;;;;;;;10.88;8.63;;;;;;;;;;5071330;28;20036;-78
2023/01/28 09:18:52;;;;;;;15.43;11.20;;;;;;;;;;5062791;28;20044;-78
2023/01/28 09:21:18;;;;;;;17.48;11.95;;;;;;;;;;5073643;28;20455;-78
2023/01/28 09:23:45;;;;;;;16.35;12.23;;;;;;;;;;5073936;28;20048;-77
2023/01/28 09:26:11;;;;;;;22.83;14.93;;;;;;;;;;5060558;28;20060;-77
2023/01/28 09:28:37;;;;;;;43.08;24.83;;;;;;;;;;5053443;28;20120;-77
2023/01/28 09:31:07;;;;;;;43.05;24.90;;;;;;;;;;5065055;28;20084;-77
2023/01/28 09:33:34;;;;;;;39.30;23.92;;;;;;;;;;5071447;28;20041;-77
2023/01/28 09:36:01;;;;;;;81.40;40.00;;;;;;;;;;5063620;28;20045;-78
2023/01/28 09:38:28;;;;;;;61.05;33.63;;;;;;;;;;5056587;28;20123;-77
2023/01/28 09:40:55;;;;;;;47.83;26.40;;;;;;;;;;5073519;28;20037;-78
2023/01/28 09:43:30;;;;;;;43.75;24.05;;;;;;;;;;5042610;28;20410;-78
2023/01/28 09:45:57;;;;;;;32.83;19.23;;;;;;;;;;5065831;28;20037;-79
2023/01/28 09:48:29;;;;;;;28.00;17.23;;;;;;;;;;5067084;28;20032;-79
2023/01/28 09:50:55;;;;;;;28.05;16.80;;;;;;;;;;5060237;28;20425;-79
2023/01/28 09:53:30;;;;;;;20.63;12.65;;;;;;;;;;5056582;28;20053;-79
2023/01/28 09:55:57;;;;;;;17.02;10.77;;;;;;;;;;5067130;28;20044;-79
2023/01/28 09:58:23;;;;;;;12.40;9.60;;;;;;;;;;5049059;28;20036;-79
2023/01/28 10:00:53;;;;;;;9.95;8.50;;;;;;;;;;5073157;28;20040;-79
2023/01/28 10:03:37;;;;;;;9.55;7.80;;;;;;;;;;5056496;28;20097;-79
2023/01/28 10:06:16;;;;;;;9.48;8.23;;;;;;;;;;5068881;28;20397;-79
2023/01/28 10:08:42;;;;;;;8.90;7.78;;;;;;;;;;5067252;28;20040;-79
2023/01/28 10:11:14;;;;;;;11.50;7.72;;;;;;;;;;5072649;28;20036;-79
2023/01/28 10:13:58;;;;;;;8.65;7.57;;;;;;;;;;5072845;28;20139;-79
2023/01/28 10:16:28;;;;;;;8.80;7.70;;;;;;;;;;5072489;28;20048;-79
2023/01/28 10:19:17;;;;;;;9.13;7.55;;;;;;;;;;5073060;28;20040;-78
2023/01/28 10:21:46;;;;;;;12.65;9.63;;;;;;;;;;5067288;28;20414;-78
2023/01/28 10:24:30;;;;;;;10.52;8.77;;;;;;;;;;5056063;28;20044;-78
2023/01/28 10:26:57;;;;;;;14.43;8.70;;;;;;;;;;5053408;28;20138;-78
2023/01/28 10:29:25;;;;;;;10.13;8.43;;;;;;;;;;5064126;28;20040;-78
2023/01/28 10:31:52;;;;;;;10.43;8.07;;;;;;;;;;5058362;28;20170;-79
2023/01/28 10:34:18;;;;;;;10.20;8.70;;;;;;;;;;5062479;28;20481;-78
2023/01/28 10:36:45;;;;;;;10.18;7.97;;;;;;;;;;5037592;28;20134;-78
2023/01/28 10:39:15;;;;;;;9.20;7.63;;;;;;;;;;5072519;28;20042;-77
2023/01/28 10:41:41;;;;;;;9.55;7.05;;;;;;;;;;5072610;28;20036;-77
2023/01/28 10:44:13;;;;;;;7.90;7.00;;;;;;;;;;5059156;28;20128;-78
2023/01/28 10:46:40;;;;;;;7.18;6.38;;;;;;;;;;5058422;28;20036;-78
2023/01/28 10:49:09;;;;;;;7.35;6.47;;;;;;;;;;5035248;28;20037;-78
2023/01/28 10:51:36;;;;;;;7.90;6.40;;;;;;;;;;5064101;28;20037;-77
2023/01/28 10:54:04;;;;;;;7.70;6.07;;;;;;;;;;5072317;28;20036;-78
2023/01/28 10:56:31;;;;;;;8.73;7.10;;;;;;;;;;5071982;28;20044;-78
2023/01/28 10:58:58;;;;;;;9.07;6.70;;;;;;;;;;5055239;28;20438;-77
2023/01/28 11:01:24;;;;;;;8.20;6.68;;;;;;;;;;5044567;28;20041;-78
2023/01/28 11:03:55;;;;;;;8.07;6.15;;;;;;;;;;5071526;28;20044;-78
2023/01/28 11:06:26;;;;;;;7.15;5.70;;;;;;;;;;5072016;28;20397;-78
2023/01/28 11:08:52;;;;;;;8.23;5.72;;;;;;;;;;5071373;28;20040;-78
2023/01/28 11:11:28;;;;;;;7.25;6.13;;;;;;;;;;5052256;28;20044;-78
2023/01/28 11:13:57;;;;;;;9.45;6.30;;;;;;;;;;5063442;28;20094;-78
2023/01/28 11:16:23;;;;;;;10.15;6.47;;;;;;;;;;5071494;28;20101;-78
2023/01/28 11:18:54;;;;;;;11.10;8.07;;;;;;;;;;5071444;28;20048;-78
2023/01/28 11:21:24;;;;;;;10.13;7.38;;;;;;;;;;5070350;28;20051;-77
2023/01/28 11:24:02;;;;;;;14.15;8.63;;;;;;;;;;5051503;28;20532;-77
2023/01/28 11:26:31;;;;;;;15.73;9.65;;;;;;;;;;5050685;28;20099;-77
2023/01/28 11:28:57;;;;;;;15.40;9.98;;;;;;;;;;5071601;28;20044;-77
2023/01/28 11:31:24;;;;;;;16.77;10.25;;;;;;;;;;5040722;28;20057;-77
2023/01/28 11:33:52;;;;;;;16.42;10.05;;;;;;;;;;5053831;28;20044;-77
2023/01/28 11:36:22;;;;;;;14.45;9.30;;;;;;;;;;5064044;28;20040;-77
2023/01/28 11:38:48;;;;;;;15.65;9.27;;;;;;;;;;5049227;28;20055;-77
2023/01/28 11:41:15;;;;;;;16.83;9.80;;;;;;;;;;5062864;28;20406;-77
2023/01/28 11:43:44;;;;;;;19.55;9.50;;;;;;;;;;5071206;28;20048;-77
2023/01/28 11:46:19;;;;;;;18.65;10.27;;;;;;;;;;5073033;28;20044;-77
2023/01/28 11:48:45;;;;;;;18.77;10.23;;;;;;;;;;5067926;28;20040;-77
2023/01/28 11:51:30;;;;;;;20.85;10.15;;;;;;;;;;5051210;28;20119;-77
2023/01/28 11:53:56;;;;;;;16.85;9.55;;;;;;;;;;5050959;28;20045;-76
2023/01/28 11:56:41;;;;;;;15.95;9.98;;;;;;;;;;5061161;28;20542;-77
2023/01/28 11:59:19;;;;;;;11.93;6.97;;;;;;;;;;5071203;28;20032;-76
2023/01/28 12:02:03;;;;;;;25.70;16.73;;;;;;;;;;5058959;28;20051;-77
2023/01/28 12:04:41;;;;;;;13.18;7.70;;;;;;;;;;5035057;28;20051;-77
2023/01/28 12:07:25;;;;;;;9.98;6.20;;;;;;;;;;5065064;28;20076;-77
2023/01/28 12:09:51;;;;;;;13.73;6.90;;;;;;;;;;5050723;28;20073;-76
2023/01/28 12:12:24;;;;;;;10.98;6.47;;;;;;;;;;5061848;28;20082;-77
2023/01/28 12:15:02;;;;;;;12.85;6.82;;;;;;;;;;5067074;28;20041;-76
2023/01/28 12:17:41;;;;;;;11.57;8.15;;;;;;;;;;5034516;28;20520;-76
2023/01/28 12:20:19;;;;;;;23.67;11.13;;;;;;;;;;5054014;28;20076;-76
2023/01/28 12:22:56;;;;;;;33.72;16.35;;;;;;;;;;5071109;28;20052;-76
2023/01/28 12:25:39;;;;;;;34.08;16.70;;;;;;;;;;5038977;28;20404;-76
2023/01/28 12:28:05;;;;;;;30.77;14.80;;;;;;;;;;5065202;28;20037;-77
2023/01/28 12:30:37;;;;;;;21.52;10.85;;;;;;;;;;5057950;28;20048;-76
2023/01/28 12:33:03;;;;;;;21.23;9.70;;;;;;;;;;5071117;28;20037;-76
2023/01/28 12:35:33;;;;;;;18.42;9.90;;;;;;;;;;5056698;28;20044;-76
2023/01/28 12:38:06;;;;;;;20.88;9.77;;;;;;;;;;5070895;28;20053;-76
2023/01/28 12:40:41;;;;;;;43.42;26.10;;;;;;;;;;5071045;28;20040;-77
2023/01/28 12:43:11;;;;;;;20.58;9.95;;;;;;;;;;5041607;28;20041;-79
2023/01/28 12:45:39;;;;;;;24.13;11.48;;;;;;;;;;5065133;28;20063;-79
2023/01/28 12:48:23;;;;;;;23.48;11.80;;;;;;;;;;5062318;28;20055;-79
2023/01/28 12:51:11;;;;;;;27.52;12.75;;;;;;;;;;5071014;28;20040;-79
2023/01/28 12:53:43;;;;;;;24.00;11.35;;;;;;;;;;5052996;28;20045;-79
2023/01/28 12:56:15;;;;;;;24.75;12.32;;;;;;;;;;5059113;28;20497;-79
2023/01/28 12:58:44;;;;;;;28.67;12.98;;;;;;;;;;5053344;28;20072;-79
2023/01/28 13:01:12;;;;;;;23.30;11.95;;;;;;;;;;5051053;28;20056;-79
2023/01/28 13:03:54;;;;;;;24.27;11.38;;;;;;;;;;5050930;28;20120;-79
2023/01/28 13:06:27;;;;;;;16.00;8.30;;;;;;;;;;5038777;28;20040;-79
2023/01/28 13:08:58;;;;;;;17.92;7.55;;;;;;;;;;5062436;28;20040;-79
2023/01/28 13:11:26;;;;;;;19.02;9.60;;;;;;;;;;5056946;28;20041;-79
2023/01/28 13:13:53;;;;;;;23.20;10.98;;;;;;;;;;5064167;28;20039;-79
2023/01/28 13:16:19;;;;;;;19.45;8.82;;;;;;;;;;5072328;28;20040;-79
2023/01/28 13:18:46;;;;;;;15.55;8.23;;;;;;;;;;5053955;28;20078;-79
2023/01/28 13:21:14;;;;;;;15.18;7.72;;;;;;;;;;5069760;28;20045;-79
2023/01/28 13:23:40;;;;;;;17.02;8.95;;;;;;;;;;5074155;28;20125;-79
2023/01/28 13:26:18;;;;;;;22.42;10.63;;;;;;;;;;5074163;28;20045;-79
2023/01/28 13:28:51;;;;;;;22.60;9.95;;;;;;;;;;5061316;28;20040;-79
2023/01/28 13:31:19;;;;;;;28.55;13.40;;;;;;;;;;5057620;28;20043;-79
2023/01/28 13:34:00;;;;;;;28.52;13.82;;;;;;;;;;5054575;28;20040;-79
2023/01/28 13:36:45;;;;;;;32.45;14.07;;;;;;;;;;5067766;28;20064;-79
2023/01/28 13:39:11;;;;;;;14.30;7.47;;;;;;;;;;5042483;28;20052;-79
2023/01/28 13:41:39;;;;;;;17.48;8.15;;;;;;;;;;5053783;28;20049;-79
2023/01/28 13:44:17;;;;;;;20.48;9.15;;;;;;;;;;5053941;28;20048;-79
2023/01/28 13:46:43;;;;;;;19.95;9.90;;;;;;;;;;5053879;28;20041;-79
2023/01/28 13:49:15;;;;;;;14.50;7.10;;;;;;;;;;5053410;28;20102;-79
2023/01/28 13:51:45;;;;;;;10.80;5.30;;;;;;;;;;5053556;28;20075;-79
2023/01/28 13:54:20;;;;;;;11.93;5.70;;;;;;;;;;5042355;28;20404;-79
2023/01/28 13:56:49;;;;;;;14.35;6.03;;;;;;;;;;5060780;28;20051;-79
2023/01/28 13:59:18;;;;;;;14.35;6.60;;;;;;;;;;5059178;28;20378;-79
2023/01/28 14:02:04;;;;;;;14.77;6.65;;;;;;;;;;5061936;28;20044;-79
2023/01/28 14:04:42;;;;;;;12.55;6.72;;;;;;;;;;5040515;28;20049;-79
2023/01/28 14:07:27;;;;;;;11.13;5.47;;;;;;;;;;5037270;28;20045;-79
2023/01/28 14:10:05;;;;;;;11.38;5.30;;;;;;;;;;5068221;28;20036;-79
2023/01/28 14:12:50;;;;;;;11.25;5.68;;;;;;;;;;5036830;28;20044;-79
2023/01/28 14:15:22;;;;;;;10.63;6.45;;;;;;;;;;5048081;28;20048;-79
2023/01/28 14:17:53;;;;;;;11.68;5.88;;;;;;;;;;5059304;28;20037;-79
2023/01/28 14:20:39;;;;;;;13.15;6.70;;;;;;;;;;5059798;28;20040;-79
2023/01/28 14:23:06;;;;;;;13.40;6.30;;;;;;;;;;5059119;28;20045;-79
2023/01/28 14:25:32;;;;;;;11.48;6.32;;;;;;;;;;5064997;28;20068;-79
2023/01/28 14:28:00;;;;;;;12.23;6.25;;;;;;;;;;5053315;28;20052;-79
2023/01/28 14:30:45;;;;;;;13.35;6.43;;;;;;;;;;5061941;28;20067;-79
2023/01/28 14:33:11;;;;;;;13.00;6.70;;;;;;;;;;5058873;28;20070;-79
2023/01/28 14:35:39;;;;;;;18.02;6.90;;;;;;;;;;5061741;28;20040;-80
2023/01/28 14:38:07;;;;;;;11.10;5.72;;;;;;;;;;5072744;28;20124;-79
2023/01/28 14:40:36;;;;;;;10.25;5.32;;;;;;;;;;5058602;28;20048;-79
2023/01/28 14:43:05;;;;;;;12.60;5.88;;;;;;;;;;5060661;28;20045;-79
2023/01/28 14:45:48;;;;;;;10.88;5.20;;;;;;;;;;5071233;28;20040;-79
2023/01/28 14:48:17;;;;;;;10.60;4.70;;;;;;;;;;5043488;28;20051;-79
2023/01/28 14:50:43;;;;;;;9.70;5.18;;;;;;;;;;5053841;28;20037;-79
2023/01/28 14:53:32;;;;;;;10.15;4.70;;;;;;;;;;5053675;28;20045;-79
2023/01/28 14:56:06;;;;;;;9.77;4.63;;;;;;;;;;5033738;28;20395;-79
2023/01/28 14:58:35;;;;;;;11.23;5.28;;;;;;;;;;5052407;28;20052;-79
2023/01/28 15:01:01;;;;;;;10.65;5.22;;;;;;;;;;5038599;28;20041;-79
2023/01/28 15:03:28;;;;;;;12.02;5.25;;;;;;;;;;5064630;28;20040;-79
2023/01/28 15:06:05;;;;;;;11.38;5.50;;;;;;;;;;5072565;28;20063;-79
2023/01/28 15:08:31;;;;;;;10.27;5.32;;;;;;;;;;5068654;28;20128;-79
2023/01/28 15:10:58;;;;;;;10.77;5.57;;;;;;;;;;5073235;28;20041;-79
2023/01/28 15:13:29;;;;;;;11.35;4.90;;;;;;;;;;5061068;28;20036;-79
2023/01/28 15:15:57;;;;;;;10.65;5.28;;;;;;;;;;5073359;28;20505;-79